Time;durP1;ratioP1;P1;durP2;ratioP2;P2;SDS_P1;SDS_P2;PMS_P1;PMS_P2;Temp;Humidity;BMP_temperature;BMP_pressure;BME280_temperature;BME280_humidity;BME280_pressure;Samples;Min_cycle;Max_cycle;Signal;HPM_P1;HPM_P2
2021/01/24 00:04:55;;;;;;;28.08;19.63;;;2.90;99.90;;;;;;9996325;29;20069;-94
2021/01/24 00:09:56;;;;;;;34.40;22.60;;;2.80;99.90;;;;;;9981256;29;20089;-94
2021/01/24 00:14:58;;;;;;;28.17;20.45;;;2.90;99.90;;;;;;9995819;29;20068;-96
2021/01/24 00:20:00;;;;;;;32.83;20.33;;;3.20;99.90;;;;;;9995306;29;20526;-96
2021/01/24 00:25:01;;;;;;;26.13;17.65;;;2.80;99.90;;;;;;9966181;29;20141;-95
2021/01/24 00:30:06;;;;;;;40.35;23.35;;;2.80;99.90;;;;;;9980896;29;20054;-94
2021/01/24 00:35:09;;;;;;;41.15;24.05;;;2.20;99.90;;;;;;9966910;29;20572;-94
2021/01/24 00:40:12;;;;;;;32.70;23.08;;;2.10;99.90;;;;;;10025936;29;20069;-95
2021/01/24 00:45:13;;;;;;;43.65;26.08;;;2.20;99.90;;;;;;10025542;29;20108;-94
2021/01/24 00:50:15;;;;;;;;;;;2.80;99.90;;;;;;9994531;29;20073;-94
2021/01/24 00:55:16;;;;;;;29.50;18.58;;;2.40;99.90;;;;;;9979968;29;19924;-95
2021/01/24 01:00:19;;;;;;;;;;;3.10;99.90;;;;;;9995095;29;20057;-94
2021/01/24 01:05:20;;;;;;;24.98;16.10;;;2.20;99.90;;;;;;10023886;29;20039;-94
2021/01/24 01:10:22;;;;;;;;;;;2.70;99.90;;;;;;9994386;29;20053;-94
2021/01/24 01:15:24;;;;;;;32.70;19.55;;;3.30;99.90;;;;;;9993293;29;20380;-94
2021/01/24 01:20:26;;;;;;;34.17;20.42;;;2.00;99.90;;;;;;10013312;24;20145;-95
2021/01/24 01:25:27;;;;;;;30.40;17.70;;;1.70;99.90;;;;;;9993249;29;20085;-95
2021/01/24 01:30:29;;;;;;;37.70;19.08;;;2.00;99.90;;;;;;9978129;29;20114;-95
2021/01/24 01:35:30;;;;;;;30.67;17.80;;;1.70;99.90;;;;;;9992670;29;20140;-94
2021/01/24 01:40:32;;;;;;;23.08;15.10;;;1.70;99.90;;;;;;9978379;29;20091;-95
2021/01/24 01:45:34;;;;;;;;;;;2.40;99.90;;;;;;9992558;29;20122;-95
2021/01/24 01:50:35;;;;;;;28.60;15.07;;;2.80;99.90;;;;;;9992009;29;19925;-95
2021/01/24 01:55:37;;;;;;;23.98;13.15;;;2.50;99.90;;;;;;9977463;29;20081;-95
2021/01/24 02:00:38;;;;;;;23.35;12.32;;;2.60;99.90;;;;;;10008004;29;20061;-95
2021/01/24 02:06:29;;;;;;;20.00;11.70;;;1.90;99.90;;;;;;9992955;29;20061;-95
2021/01/24 02:11:43;;;;;;;19.77;10.88;;;1.90;99.90;;;;;;9941457;29;20065;-94
2021/01/24 02:16:47;;;;;;;18.38;10.43;;;1.80;99.90;;;;;;9991404;29;20092;-95
2021/01/24 02:21:49;;;;;;;21.50;10.18;;;3.10;99.90;;;;;;9991192;29;20520;-94
2021/01/24 02:26:54;;;;;;;17.80;9.18;;;2.80;99.90;;;;;;10006717;29;20149;-93
2021/01/24 02:32:00;;;;;;;13.57;8.93;;;2.00;99.90;;;;;;10007396;29;20114;-94
2021/01/24 02:37:03;;;;;;;13.95;8.70;;;3.00;99.90;;;;;;10007177;29;20058;-94
2021/01/24 02:42:06;;;;;;;13.50;8.15;;;2.60;99.90;;;;;;10006788;29;20498;-95
2021/01/24 02:47:09;;;;;;;16.02;9.73;;;2.70;99.90;;;;;;9970184;29;20058;-94
2021/01/24 02:52:13;;;;;;;12.63;8.43;;;1.80;99.90;;;;;;9976049;29;20111;-95
2021/01/24 02:57:15;;;;;;;11.60;7.65;;;1.40;99.90;;;;;;9961380;29;20086;-94
2021/01/24 03:02:17;;;;;;;9.40;6.38;;;1.80;99.90;;;;;;9960686;29;20088;-94
2021/01/24 03:07:19;;;;;;;;;;;2.10;99.90;;;;;;9960957;29;20058;-94
2021/01/24 03:12:21;;;;;;;10.43;6.30;;;1.70;99.90;;;;;;9960829;29;19931;-94
2021/01/24 03:17:25;;;;;;;11.52;7.03;;;1.40;99.90;;;;;;9975422;29;20065;-94
2021/01/24 03:22:26;;;;;;;11.55;7.38;;;1.50;99.90;;;;;;9975280;29;20546;-94
2021/01/24 03:27:28;;;;;;;10.32;7.97;;;2.30;99.90;;;;;;9960110;29;20098;-94
2021/01/24 03:32:30;;;;;;;11.63;7.75;;;2.50;99.90;;;;;;9991336;29;20138;-94
2021/01/24 03:37:32;;;;;;;11.82;7.82;;;1.90;99.90;;;;;;9997926;29;20069;-94
2021/01/24 03:42:33;;;;;;;16.98;7.85;;;2.30;99.90;;;;;;10012141;29;20498;-94
2021/01/24 03:47:35;;;;;;;11.80;8.25;;;1.60;99.90;;;;;;10011681;29;20082;-95
2021/01/24 03:52:36;;;;;;;;;;;1.40;99.90;;;;;;9996758;29;20056;-95
2021/01/24 03:57:38;;;;;;;15.50;8.18;;;1.90;99.90;;;;;;9981176;29;20041;-94
2021/01/24 04:02:39;;;;;;;;;;;2.10;99.90;;;;;;9997178;29;20057;-95
2021/01/24 04:07:41;;;;;;;16.58;9.07;;;2.80;99.90;;;;;;9996425;29;19931;-94
2021/01/24 04:12:42;;;;;;;16.85;11.13;;;1.60;99.90;;;;;;9995293;29;20407;-93
2021/01/24 04:17:45;;;;;;;18.40;11.07;;;2.80;99.90;;;;;;9996032;29;20062;-94
2021/01/24 04:22:49;;;;;;;15.68;9.85;;;1.90;99.90;;;;;;9995897;29;20058;-94
2021/01/24 04:27:51;;;;;;;19.95;11.50;;;2.00;99.90;;;;;;9997078;29;20081;-93
2021/01/24 04:32:52;;;;;;;16.98;10.93;;;2.00;99.90;;;;;;9980792;29;20086;-94
2021/01/24 04:37:54;;;;;;;37.13;16.02;;;2.50;99.90;;;;;;10010696;29;20064;-94
2021/01/24 04:42:56;;;;;;;38.22;17.92;;;1.80;99.90;;;;;;9994936;29;20169;-94
2021/01/24 04:47:58;;;;;;;19.35;12.15;;;1.90;99.90;;;;;;10009592;29;20562;-95
2021/01/24 04:52:59;;;;;;;26.25;14.80;;;2.00;99.90;;;;;;10010567;29;20054;-94
2021/01/24 04:58:01;;;;;;;30.10;14.15;;;2.00;99.90;;;;;;9994497;29;20146;-94
2021/01/24 05:03:04;;;;;;;28.67;13.95;;;2.30;99.90;;;;;;9994565;29;20433;-95
2021/01/24 05:08:09;;;;;;;26.80;14.52;;;2.10;99.90;;;;;;10009827;29;20054;-94
2021/01/24 05:13:11;;;;;;;22.75;11.93;;;2.70;99.90;;;;;;9994144;29;20072;-94
2021/01/24 05:18:13;;;;;;;25.55;13.20;;;2.00;99.90;;;;;;9993685;29;20093;-94
2021/01/24 05:23:19;;;;;;;24.40;13.40;;;2.20;99.90;;;;;;9994083;29;20057;-94
2021/01/24 05:28:30;;;;;;;22.10;12.40;;;2.00;99.90;;;;;;10008608;29;20060;-94
2021/01/24 05:33:32;;;;;;;31.75;15.07;;;2.90;99.90;;;;;;9994801;29;20055;-94
2021/01/24 05:38:33;;;;;;;25.08;13.82;;;3.20;99.90;;;;;;9993036;29;20062;-94
2021/01/24 05:43:40;;;;;;;20.17;12.45;;;2.20;99.90;;;;;;9978007;29;20085;-94
2021/01/24 05:48:50;;;;;;;20.10;11.80;;;2.00;99.90;;;;;;9992730;29;20085;-94
2021/01/24 05:53:55;;;;;;;18.80;10.15;;;2.10;99.90;;;;;;10008450;29;20110;-94
2021/01/24 05:59:02;;;;;;;14.88;10.48;;;2.70;99.90;;;;;;9978775;29;20136;-95
2021/01/24 06:04:04;;;;;;;18.38;9.35;;;1.90;99.90;;;;;;9977405;29;20141;-95
2021/01/24 06:09:05;;;;;;;16.30;9.48;;;1.80;99.90;;;;;;9991626;29;20547;-95
2021/01/24 06:14:08;;;;;;;15.95;9.23;;;2.60;99.90;;;;;;9976860;29;20093;-94
2021/01/24 06:19:10;;;;;;;17.30;9.48;;;1.70;99.90;;;;;;9991234;29;20062;-95
2021/01/24 06:24:19;;;;;;;19.75;10.73;;;1.80;99.90;;;;;;9991249;29;20061;-95
2021/01/24 06:29:27;;;;;;;23.45;10.30;;;1.90;99.90;;;;;;10021416;29;20145;-94
2021/01/24 06:34:47;;;;;;;20.95;10.60;;;2.30;99.90;;;;;;9993611;29;20094;-94
2021/01/24 06:39:53;;;;;;;18.35;9.95;;;2.90;99.90;;;;;;9976584;29;20082;-94
2021/01/24 06:44:55;;;;;;;14.48;9.23;;;3.00;99.90;;;;;;10006778;29;20058;-94
2021/01/24 06:49:56;;;;;;;22.40;11.85;;;1.80;99.90;;;;;;9976244;29;20064;-95
2021/01/24 06:55:27;;;;;;;20.83;10.27;;;1.90;99.90;;;;;;9991299;29;20142;-94
2021/01/24 07:00:29;;;;;;;19.17;10.60;;;1.90;99.90;;;;;;10006938;29;20128;-93
2021/01/24 07:05:31;;;;;;;18.20;10.13;;;1.90;99.90;;;;;;9991591;29;20058;-94
2021/01/24 07:10:38;;;;;;;;;;;1.80;99.90;;;;;;9976464;29;20062;-95
2021/01/24 07:15:40;;;;;;;14.02;8.93;;;2.00;99.90;;;;;;10006360;29;19924;-95
2021/01/24 07:20:42;;;;;;;14.57;7.55;;;2.50;99.90;;;;;;10004888;29;20409;-95
2021/01/24 07:25:44;;;;;;;12.45;8.07;;;2.50;99.90;;;;;;10005751;29;20145;-94
2021/01/24 07:30:45;;;;;;;11.57;6.85;;;1.60;99.90;;;;;;9992050;29;20054;-94
2021/01/24 07:35:47;;;;;;;;;;;2.20;99.90;;;;;;10009891;29;20490;-95
2021/01/24 07:40:53;;;;;;;8.10;5.40;;;2.30;99.90;;;;;;10011696;29;20015;-95
2021/01/24 07:45:55;;;;;;;9.70;6.18;;;2.10;99.90;;;;;;10012696;29;20165;-94
2021/01/24 07:50:57;;;;;;;;;;;2.70;99.90;;;;;;9996733;29;20128;-95
2021/01/24 07:56:01;;;;;;;15.40;6.70;;;2.20;99.90;;;;;;9996534;29;19982;-95
2021/01/24 08:01:03;;;;;;;8.68;6.63;;;1.40;99.90;;;;;;10012580;29;20077;-95
2021/01/24 08:06:14;;;;;;;7.95;5.85;;;1.60;99.90;;;;;;9997901;29;20077;-95
2021/01/24 08:11:16;;;;;;;12.63;7.28;;;2.10;99.90;;;;;;9981387;29;20064;-94
2021/01/24 08:16:41;;;;;;;9.73;6.53;;;2.00;99.90;;;;;;9987959;23;20524;-95
2021/01/24 08:21:44;;;;;;;13.90;5.43;;;1.30;99.90;;;;;;10011464;29;20405;-94
2021/01/24 08:26:46;;;;;;;9.50;5.93;;;1.40;99.90;;;;;;9996560;29;20074;-94
2021/01/24 08:31:48;;;;;;;5.68;4.57;;;2.30;99.90;;;;;;9981635;29;20084;-94
2021/01/24 08:36:50;;;;;;;6.80;4.63;;;1.30;99.90;;;;;;10010203;29;20474;-94
2021/01/24 08:41:54;;;;;;;9.40;4.65;;;2.60;99.90;;;;;;9980467;29;20058;-94
2021/01/24 08:47:06;;;;;;;6.35;4.57;;;2.00;99.90;;;;;;9999277;29;20499;-95
2021/01/24 08:52:07;;;;;;;5.32;3.95;;;1.70;99.90;;;;;;9958186;29;20145;-95
2021/01/24 08:57:13;;;;;;;;;;;2.70;99.90;;;;;;9987743;29;20089;-95
2021/01/24 09:02:37;;;;;;;4.70;3.80;;;1.70;99.90;;;;;;9972968;29;19932;-94
2021/01/24 09:07:43;;;;;;;5.93;4.28;;;1.80;99.90;;;;;;9971751;29;20074;-94
2021/01/24 09:12:51;;;;;;;4.13;3.75;;;1.90;99.90;;;;;;9987481;29;20058;-94
2021/01/24 09:17:55;;;;;;;8.98;5.05;;;2.00;99.90;;;;;;9971255;29;20077;-92
2021/01/24 09:22:57;;;;;;;6.20;4.82;;;2.10;99.90;;;;;;9971446;29;20073;-94
2021/01/24 09:28:02;;;;;;;7.63;5.72;;;2.20;99.90;;;;;;9971027;29;20145;-93
2021/01/24 09:33:07;;;;;;;8.43;5.88;;;2.00;99.90;;;;;;9972870;29;20471;-94
2021/01/24 09:38:12;;;;;;;8.75;6.05;;;2.90;99.90;;;;;;9957634;29;20086;-92
2021/01/24 09:43:13;;;;;;;10.27;5.18;;;2.60;99.90;;;;;;9957035;29;20078;-94
2021/01/24 09:48:17;;;;;;;9.93;6.45;;;2.20;99.90;;;;;;9971010;29;20065;-94
2021/01/24 09:53:19;;;;;;;9.23;6.50;;;2.00;99.90;;;;;;9985626;29;20499;-95
2021/01/24 09:58:21;;;;;;;11.55;6.18;;;2.80;99.90;;;;;;9970010;29;20086;-93
2021/01/24 10:03:22;;;;;;;12.70;7.70;;;2.90;99.90;;;;;;9996142;29;20085;-93
2021/01/24 10:08:27;;;;;;;9.90;6.35;;;2.60;99.90;;;;;;10007886;29;20058;-94
2021/01/24 10:13:28;;;;;;;14.90;6.40;;;1.90;99.90;;;;;;10007884;29;20054;-93
2021/01/24 10:18:31;;;;;;;9.38;6.32;;;1.60;99.90;;;;;;9978468;29;20144;-95
2021/01/24 10:23:33;;;;;;;;;;;1.90;99.90;;;;;;9977733;29;20080;-93
2021/01/24 10:28:35;;;;;;;5.87;4.57;;;2.50;99.90;;;;;;10012398;29;20015;-93
2021/01/24 10:33:36;;;;;;;7.10;4.28;;;3.10;99.90;;;;;;9977296;29;20081;-94
2021/01/24 10:38:39;;;;;;;5.35;4.45;;;2.60;99.90;;;;;;9977402;29;20058;-93
2021/01/24 10:43:41;;;;;;;5.40;4.43;;;2.50;99.90;;;;;;9976127;29;20514;-94
2021/01/24 10:48:44;;;;;;;4.88;3.63;;;3.00;99.90;;;;;;9991263;29;20655;-93
2021/01/24 10:53:46;;;;;;;7.60;4.65;;;3.40;99.90;;;;;;9969990;29;20506;-94
2021/01/24 10:58:47;;;;;;;5.40;4.03;;;3.00;99.90;;;;;;9939049;29;20069;-94
2021/01/24 11:03:49;;;;;;;6.65;4.40;;;3.40;99.90;;;;;;9953509;29;20066;-95
2021/01/24 11:08:50;;;;;;;5.57;4.82;;;3.20;99.90;;;;;;9925357;29;20150;-95
2021/01/24 11:13:52;;;;;;;4.65;3.03;;;2.50;99.90;;;;;;9947569;29;20118;-94
2021/01/24 11:18:53;;;;;;;4.70;3.50;;;2.60;99.90;;;;;;9960011;29;20430;-94
2021/01/24 11:23:56;;;;;;;;;;;2.90;99.90;;;;;;9931022;29;20141;-94
2021/01/24 11:28:58;;;;;;;7.60;3.47;;;3.80;99.90;;;;;;9975628;29;19929;-94
2021/01/24 11:34:00;;;;;;;6.45;3.30;;;4.10;99.90;;;;;;9974938;29;20097;-94
2021/01/24 11:39:02;;;;;;;8.15;3.33;;;3.50;99.90;;;;;;9930351;29;20090;-94
2021/01/24 11:44:03;;;;;;;8.35;3.33;;;3.50;99.90;;;;;;9959908;29;20096;-94
2021/01/24 11:49:05;;;;;;;;;;;3.70;99.90;;;;;;9945079;29;20149;-95
2021/01/24 11:54:06;;;;;;;8.98;4.53;;;4.00;99.90;;;;;;9974647;29;20012;-94
2021/01/24 11:59:10;;;;;;;5.60;3.33;;;3.50;99.90;;;;;;9944226;29;20114;-94
2021/01/24 12:04:11;;;;;;;14.48;3.80;;;3.30;99.90;;;;;;9974025;29;20058;-94
2021/01/24 12:09:13;;;;;;;6.65;3.55;;;4.60;99.90;;;;;;9958443;29;20084;-96
2021/01/24 12:14:14;;;;;;;9.90;2.97;;;3.60;99.90;;;;;;9929667;29;20054;-95
2021/01/24 12:19:16;;;;;;;6.60;2.67;;;4.40;99.90;;;;;;9943211;29;20141;-96
2021/01/24 12:24:18;;;;;;;3.25;2.25;;;3.80;99.90;;;;;;9957856;29;20058;-93
2021/01/24 12:29:19;;;;;;;5.35;2.72;;;4.10;99.90;;;;;;9970724;29;20141;-93
2021/01/24 12:34:21;;;;;;;;;;;4.20;99.90;;;;;;10010351;29;20506;-93
2021/01/24 12:39:22;;;;;;;16.48;4.35;;;3.20;99.90;;;;;;9995679;29;19971;-93
2021/01/24 12:44:23;;;;;;;12.95;4.40;;;3.70;99.90;;;;;;9980348;29;20540;-93
2021/01/24 12:49:25;;;;;;;11.32;4.07;;;3.60;99.90;;;;;;9995068;29;20141;-93
2021/01/24 12:54:26;;;;;;;12.00;4.95;;;4.50;99.90;;;;;;10010541;29;20055;-92
2021/01/24 12:59:28;;;;;;;11.18;4.80;;;4.30;99.90;;;;;;9980568;29;20058;-93
2021/01/24 13:04:31;;;;;;;11.00;5.30;;;4.30;99.90;;;;;;9964238;29;20062;-93
2021/01/24 13:09:35;;;;;;;10.90;5.03;;;5.00;99.90;;;;;;9979127;29;20050;-92
2021/01/24 13:14:38;;;;;;;17.23;5.03;;;4.80;99.90;;;;;;9994563;29;20144;-92
2021/01/24 13:19:40;;;;;;;11.25;5.80;;;4.30;99.90;;;;;;9993214;29;20085;-92
2021/01/24 13:24:42;;;;;;;9.00;4.30;;;5.20;99.90;;;;;;9993453;29;20144;-91
2021/01/24 13:29:43;;;;;;;8.57;4.80;;;4.40;99.90;;;;;;9978633;29;20089;-93
2021/01/24 13:34:45;;;;;;;11.68;4.50;;;4.20;99.90;;;;;;9978096;29;20069;-93
2021/01/24 13:39:47;;;;;;;7.72;4.10;;;4.60;99.90;;;;;;10023232;29;20081;-93
2021/01/24 13:44:49;;;;;;;5.95;5.35;;;4.50;99.90;;;;;;9980119;29;20072;-94
2021/01/24 13:49:50;;;;;;;9.15;6.18;;;4.40;99.90;;;;;;9978940;29;20141;-92
2021/01/24 13:54:52;;;;;;;7.95;4.55;;;4.40;99.90;;;;;;10007584;29;20064;-93
2021/01/24 13:59:53;;;;;;;9.43;4.47;;;3.80;99.90;;;;;;9977817;29;20478;-92
2021/01/24 14:04:56;;;;;;;12.75;5.13;;;4.00;99.90;;;;;;9977761;29;20114;-95
2021/01/24 14:09:57;;;;;;;7.68;5.00;;;3.90;99.90;;;;;;9977194;29;20107;-93
2021/01/24 14:14:59;;;;;;;8.30;5.00;;;4.20;99.90;;;;;;9977439;29;20073;-93
2021/01/24 14:20:00;;;;;;;5.22;3.58;;;4.60;99.90;;;;;;10021408;24;20651;-94
2021/01/24 14:25:03;;;;;;;11.95;4.47;;;3.80;99.90;;;;;;10067810;29;20064;-96
2021/01/24 14:30:06;;;;;;;10.18;4.70;;;3.90;99.90;;;;;;10052849;29;20082;-95
2021/01/24 14:35:08;;;;;;;12.52;5.22;;;3.90;99.90;;;;;;10069344;29;20050;-94
2021/01/24 14:40:11;;;;;;;7.97;5.18;;;3.80;99.90;;;;;;10098605;29;20057;-94
2021/01/24 14:45:13;;;;;;;10.43;5.72;;;3.80;99.90;;;;;;10088616;29;20139;-94
2021/01/24 14:50:14;;;;;;;8.82;5.32;;;4.00;99.90;;;;;;10105543;29;20140;-92
2021/01/24 14:55:36;;;;;;;10.80;4.72;;;3.60;99.90;;;;;;10080249;29;20045;-92
2021/01/24 15:00:37;;;;;;;8.75;4.32;;;4.40;99.90;;;;;;10090373;29;20081;-94
2021/01/24 15:05:39;;;;;;;12.52;5.90;;;4.30;99.90;;;;;;10074782;29;20153;-94
2021/01/24 15:10:41;;;;;;;11.68;5.55;;;3.90;99.90;;;;;;10074285;29;20049;-95
2021/01/24 15:15:42;;;;;;;11.98;6.95;;;4.20;99.90;;;;;;10089729;29;20412;-94
2021/01/24 15:20:44;;;;;;;12.05;6.55;;;3.30;99.90;;;;;;10074710;29;20061;-94
2021/01/24 15:25:46;;;;;;;10.77;6.63;;;3.10;99.90;;;;;;10090933;29;20506;-94
2021/01/24 15:30:47;;;;;;;14.38;7.15;;;3.70;99.90;;;;;;10073875;29;20077;-94
2021/01/24 15:35:49;;;;;;;13.90;7.47;;;3.10;99.90;;;;;;10074154;29;20155;-94
2021/01/24 15:40:51;;;;;;;8.95;6.50;;;3.80;99.90;;;;;;10104312;29;20059;-93
2021/01/24 15:45:52;;;;;;;10.20;8.68;;;2.60;99.90;;;;;;10073705;29;20060;-94
2021/01/24 15:50:54;;;;;;;11.95;6.38;;;2.80;99.90;;;;;;10073232;29;20112;-95
2021/01/24 15:55:55;;;;;;;10.48;7.13;;;2.90;99.90;;;;;;10072165;29;20540;-93
2021/01/24 16:00:57;;;;;;;11.27;6.95;;;3.20;99.90;;;;;;10073999;29;20553;-94
2021/01/24 16:05:59;;;;;;;15.27;8.30;;;2.30;99.90;;;;;;10042659;29;20103;-93
2021/01/24 16:11:01;;;;;;;11.98;7.00;;;2.00;99.90;;;;;;10098114;29;20102;-94
2021/01/24 16:16:03;;;;;;;8.70;7.55;;;2.90;99.90;;;;;;10056031;29;20063;-94
2021/01/24 16:21:07;;;;;;;12.55;10.15;;;2.10;99.90;;;;;;10069761;29;20096;-93
2021/01/24 16:26:12;;;;;;;10.18;7.35;;;2.80;99.90;;;;;;10087921;29;20061;-94
2021/01/24 16:31:14;;;;;;;15.43;9.13;;;2.50;99.90;;;;;;10071680;29;20416;-94
2021/01/24 16:36:15;;;;;;;;;;;2.20;99.90;;;;;;10051330;29;20410;-94
2021/01/24 16:41:17;;;;;;;13.30;8.40;;;2.30;99.90;;;;;;10033402;29;19951;-94
2021/01/24 16:46:18;;;;;;;19.98;10.27;;;1.40;99.90;;;;;;10002969;29;20058;-93
2021/01/24 16:51:20;;;;;;;;;;;1.70;99.90;;;;;;10048021;29;20110;-93
2021/01/24 16:56:22;;;;;;;10.93;7.88;;;2.40;99.90;;;;;;10047634;29;19928;-94
2021/01/24 17:01:23;;;;;;;14.52;10.43;;;1.30;99.90;;;;;;10031901;29;20061;-93
2021/01/24 17:06:26;;;;;;;12.23;9.70;;;1.60;99.90;;;;;;10047134;29;20053;-93
2021/01/24 17:11:27;;;;;;;11.00;9.25;;;1.20;99.90;;;;;;10060722;29;20080;-93
2021/01/24 17:16:28;;;;;;;13.63;10.15;;;1.20;99.90;;;;;;10086117;29;20057;-93
2021/01/24 17:22:21;;;;;;;15.15;10.85;;;1.40;99.90;;;;;;10054915;29;20069;-93
2021/01/24 17:27:34;;;;;;;16.70;11.07;;;1.40;99.90;;;;;;10085681;29;20080;-94
2021/01/24 17:32:38;;;;;;;14.48;9.32;;;0.90;99.90;;;;;;10100250;29;20065;-94
2021/01/24 17:37:40;;;;;;;15.25;10.93;;;1.70;99.90;;;;;;10099768;29;20087;-93
2021/01/24 17:42:42;;;;;;;12.75;8.88;;;2.10;99.90;;;;;;10068713;29;20071;-93
2021/01/24 17:47:44;;;;;;;14.70;9.90;;;1.10;99.90;;;;;;10084152;29;20060;-94
2021/01/24 17:52:46;;;;;;;20.25;12.68;;;1.80;99.90;;;;;;10084306;29;20061;-93
2021/01/24 17:57:48;;;;;;;;;;;1.90;99.90;;;;;;10084934;29;20084;-93
2021/01/24 18:02:49;;;;;;;21.75;13.02;;;1.20;99.90;;;;;;10068568;29;19952;-94
2021/01/24 18:08:03;;;;;;;17.13;12.02;;;0.70;99.90;;;;;;10085644;29;20480;-94
2021/01/24 18:13:04;;;;;;;21.33;12.27;;;1.10;99.90;;;;;;10083982;29;20141;-93
2021/01/24 18:18:06;;;;;;;;;;;1.10;99.90;;;;;;10083724;29;20077;-93
2021/01/24 18:23:07;;;;;;;22.10;13.50;;;1.40;99.90;;;;;;10067684;29;19975;-93
2021/01/24 18:28:09;;;;;;;21.65;14.45;;;0.90;99.90;;;;;;10083065;29;20057;-94
2021/01/24 18:33:11;;;;;;;25.70;15.48;;;1.50;99.90;;;;;;10082327;29;20144;-94
2021/01/24 18:38:13;;;;;;;27.90;15.52;;;1.10;99.90;;;;;;10082802;29;20071;-93
2021/01/24 18:43:16;;;;;;;22.42;15.05;;;1.80;99.90;;;;;;10066076;29;20516;-93
2021/01/24 18:48:18;;;;;;;21.70;13.27;;;1.40;99.90;;;;;;10037921;29;20059;-93
2021/01/24 18:53:19;;;;;;;;;;;0.40;99.90;;;;;;10101155;29;20060;-93
2021/01/24 18:58:21;;;;;;;23.85;13.65;;;1.70;99.90;;;;;;10083590;29;20027;-93
2021/01/24 19:03:23;;;;;;;25.50;14.75;;;0.40;99.90;;;;;;10052276;29;20068;-93
2021/01/24 19:08:24;;;;;;;30.25;18.15;;;1.30;99.90;;;;;;10066830;29;20049;-94
2021/01/24 19:13:26;;;;;;;29.58;17.42;;;0.10;99.90;;;;;;10052367;29;20072;-94
2021/01/24 19:18:28;;;;;;;44.65;22.60;;;1.20;99.90;;;;;;10066336;29;20089;-93
2021/01/24 19:23:29;;;;;;;;;;;0.70;99.90;;;;;;10051647;29;20072;-94
2021/01/24 19:28:31;;;;;;;28.75;15.98;;;0.60;99.90;;;;;;10066716;29;19974;-94
2021/01/24 19:33:34;;;;;;;30.17;15.35;;;0.00;99.90;;;;;;10072945;29;20497;-94
2021/01/24 19:38:36;;;;;;;25.58;15.73;;;0.00;99.90;;;;;;10059307;29;20147;-94
2021/01/24 19:43:37;;;;;;;24.40;14.55;;;0.00;99.90;;;;;;10074461;29;20061;-93
2021/01/24 19:48:39;;;;;;;27.70;14.90;;;1.20;99.90;;;;;;10058214;29;20059;-94
2021/01/24 19:53:40;;;;;;;;;;;0.50;99.90;;;;;;10058074;29;20496;-93
2021/01/24 19:58:42;;;;;;;28.30;16.52;;;0.10;99.90;;;;;;10063171;29;19928;-93
2021/01/24 20:03:44;;;;;;;28.92;15.85;;;0.30;99.90;;;;;;10053669;29;20156;-93
2021/01/24 20:08:46;;;;;;;25.42;16.30;;;-0.10;99.90;;;;;;10073315;29;20136;-94
2021/01/24 20:13:48;;;;;;;26.38;15.20;;;0.20;99.90;;;;;;10087989;29;20084;-94
2021/01/24 20:18:49;;;;;;;26.55;16.33;;;1.20;99.90;;;;;;10103132;29;20132;-94
2021/01/24 20:23:52;;;;;;;28.85;17.77;;;1.30;99.90;;;;;;10071709;29;20144;-93
2021/01/24 20:28:53;;;;;;;23.33;15.98;;;0.00;99.90;;;;;;10102374;29;20084;-94
2021/01/24 20:39:33;;;;;;;23.58;13.50;;;0.40;99.90;;;;;;2356906;23;20105;-94
2021/01/24 20:44:34;;;;;;;26.50;16.08;;;0.40;99.90;;;;;;9978572;29;20068;-95
2021/01/24 20:49:36;;;;;;;27.40;15.25;;;0.40;99.90;;;;;;9980157;29;20054;-94
2021/01/24 20:54:37;;;;;;;21.45;14.73;;;1.10;99.90;;;;;;10009406;29;20054;-93
2021/01/24 20:59:39;;;;;;;24.98;16.17;;;0.40;99.90;;;;;;9995011;29;20077;-94
2021/01/24 21:04:41;;;;;;;;;;;1.30;99.90;;;;;;10028073;29;20460;-94
2021/01/24 21:09:42;;;;;;;27.50;15.73;;;1.30;99.90;;;;;;10025056;29;19952;-94
2021/01/24 21:14:44;;;;;;;22.33;14.48;;;0.20;99.90;;;;;;9995198;29;20065;-93
2021/01/24 21:19:47;;;;;;;19.95;12.93;;;0.90;99.90;;;;;;10023885;29;20069;-92
2021/01/24 21:24:50;;;;;;;19.90;12.35;;;0.70;99.90;;;;;;10008445;29;20145;-93
2021/01/24 21:29:52;;;;;;;20.45;11.98;;;0.30;99.90;;;;;;10008609;29;20056;-93
2021/01/24 21:34:53;;;;;;;18.95;11.50;;;0.80;99.90;;;;;;10008971;29;20062;-93
2021/01/24 21:39:55;;;;;;;17.33;11.60;;;1.00;99.90;;;;;;9985948;29;20086;-93
2021/01/24 21:44:56;;;;;;;19.70;11.30;;;0.30;99.90;;;;;;9955800;29;20755;-93
2021/01/24 21:49:58;;;;;;;22.00;13.32;;;1.10;99.90;;;;;;9985029;29;20141;-93
2021/01/24 21:55:00;;;;;;;;;;;0.80;99.90;;;;;;9955104;29;20503;-93
2021/01/24 22:00:04;;;;;;;23.87;12.93;;;0.20;99.90;;;;;;9971304;29;19924;-94
2021/01/24 22:05:07;;;;;;;19.15;11.63;;;0.30;99.90;;;;;;9981694;29;20169;-93
2021/01/24 22:10:10;;;;;;;22.02;13.13;;;0.00;99.90;;;;;;10006809;29;20425;-93
2021/01/24 22:15:12;;;;;;;19.58;11.40;;;-0.10;99.90;;;;;;9992247;29;20057;-92
2021/01/24 22:20:14;;;;;;;15.15;10.65;;;0.00;99.90;;;;;;10007098;29;20498;-93
2021/01/24 22:25:15;;;;;;;;;;;0.90;99.90;;;;;;9992847;29;20057;-94
2021/01/24 22:30:17;;;;;;;16.65;10.57;;;-0.10;99.90;;;;;;10005331;29;19924;-93
2021/01/24 22:35:19;;;;;;;23.35;12.10;;;-0.10;99.90;;;;;;10021595;29;20144;-93
2021/01/24 22:40:21;;;;;;;18.73;12.73;;;0.00;99.90;;;;;;10006617;29;20146;-93
2021/01/24 22:45:22;;;;;;;;;;;0.00;99.90;;;;;;9991796;29;20165;-93
2021/01/24 22:50:24;;;;;;;19.77;12.18;;;0.00;99.90;;;;;;9990975;29;20380;-93
2021/01/24 22:55:25;;;;;;;20.50;13.63;;;-0.10;99.90;;;;;;9991269;29;20054;-93
2021/01/24 23:00:26;;;;;;;;;;;1.30;99.90;;;;;;9991907;29;20066;-93
2021/01/24 23:05:28;;;;;;;20.55;12.02;;;1.60;99.90;;;;;;10010758;29;19931;-92
2021/01/24 23:10:29;;;;;;;18.98;11.43;;;0.10;99.90;;;;;;10013372;29;20189;-93
2021/01/24 23:15:31;;;;;;;19.88;13.77;;;0.00;99.90;;;;;;10014044;29;20137;-92
2021/01/24 23:20:32;;;;;;;;;;;0.10;99.90;;;;;;9999191;29;20088;-93
2021/01/24 23:25:34;;;;;;;20.30;11.65;;;0.40;99.90;;;;;;9999022;29;19934;-93
2021/01/24 23:30:35;;;;;;;16.23;11.30;;;-0.10;99.90;;;;;;9998385;29;20064;-93
2021/01/24 23:35:37;;;;;;;15.32;10.63;;;0.90;99.90;;;;;;9997791;29;20068;-93
2021/01/24 23:40:38;;;;;;;;;;;0.30;99.90;;;;;;10012344;29;20085;-93
2021/01/24 23:45:40;;;;;;;13.75;10.32;;;0.40;99.90;;;;;;10012194;29;19977;-93
2021/01/24 23:50:43;;;;;;;;;;;0.80;99.90;;;;;;10012484;29;20450;-93
2021/01/24 23:55:44;;;;;;;;;;;0.30;99.90;;;;;;10012996;29;20357;-93
